Time;durP1;ratioP1;P1;durP2;ratioP2;P2;SDS_P1;SDS_P2;PMS_P1;PMS_P2;Temp;Humidity;BMP_temperature;BMP_pressure;BME280_temperature;BME280_humidity;BME280_pressure;Samples;Min_cycle;Max_cycle;Signal;HPM_P1;HPM_P2
2024/03/31 00:00:50;;;;;;;7.35;1.60;;;486.70;1126.40;;;;;;5031763;28;20022;-70
2024/03/31 00:03:15;;;;;;;6.35;1.45;;;486.80;1126.40;;;;;;5031280;28;20030;-71
2024/03/31 00:05:41;;;;;;;7.15;1.70;;;486.80;1126.40;;;;;;5030323;28;20025;-71
2024/03/31 00:08:07;;;;;;;10.82;1.77;;;486.80;1100.80;;;;;;5019820;28;20099;-70
2024/03/31 00:10:32;;;;;;;6.28;1.50;;;486.70;1126.40;;;;;;5011717;28;20022;-70
2024/03/31 00:12:58;;;;;;;5.70;1.40;;;486.60;1126.40;;;;;;5011649;28;20022;-70
2024/03/31 00:15:24;;;;;;;5.82;1.70;;;486.60;1126.40;;;;;;5011615;28;20026;-70
2024/03/31 00:17:51;;;;;;;6.32;1.48;;;486.60;1126.40;;;;;;5011411;28;20048;-70
2024/03/31 00:20:17;;;;;;;6.30;1.80;;;486.60;1126.40;;;;;;5011057;28;20029;-70
2024/03/31 00:22:42;;;;;;;7.93;1.90;;;486.60;1126.40;;;;;;5010968;28;20033;-70
2024/03/31 00:25:08;;;;;;;8.02;1.80;;;486.40;1152.00;;;;;;5011511;28;20033;-70
2024/03/31 00:27:34;;;;;;;8.27;1.90;;;461.70;1152.00;;;;;;5018129;28;20025;-70
2024/03/31 00:30:00;;;;;;;4.75;1.85;;;461.60;1152.00;;;;;;5011583;28;20030;-70
2024/03/31 00:32:25;;;;;;;8.15;1.80;;;461.60;1152.00;;;;;;5018289;28;20108;-70
2024/03/31 00:34:51;;;;;;;5.32;2.00;;;461.60;1152.00;;;;;;5018519;28;20383;-70
2024/03/31 00:37:17;;;;;;;6.82;1.83;;;461.60;1152.00;;;;;;5014937;28;20414;-70
2024/03/31 00:39:42;;;;;;;6.72;1.70;;;461.50;1152.00;;;;;;5030419;28;20087;-69
2024/03/31 00:42:09;;;;;;;5.05;1.80;;;461.50;1177.60;;;;;;5025878;28;20041;-71
2024/03/31 00:44:35;;;;;;;5.18;1.52;;;461.40;1177.60;;;;;;5020460;28;20025;-69
2024/03/31 00:47:01;;;;;;;6.18;1.80;;;461.30;1177.60;;;;;;5025477;28;20033;-70
2024/03/31 00:49:26;;;;;;;8.07;1.75;;;461.30;1177.60;;;;;;5016602;28;20021;-69
2024/03/31 00:51:52;;;;;;;7.57;1.55;;;461.10;1203.20;;;;;;5020947;28;20053;-69
2024/03/31 00:54:18;;;;;;;7.15;1.98;;;461.00;1203.20;;;;;;5009302;28;20034;-70
2024/03/31 00:56:43;;;;;;;5.00;1.33;;;461.00;1228.80;;;;;;5011664;28;20029;-71
2024/03/31 00:59:09;;;;;;;9.25;1.73;;;461.00;1228.80;;;;;;5027841;28;20047;-71
2024/03/31 01:01:35;;;;;;;8.73;1.42;;;461.00;1203.20;;;;;;4999202;28;20159;-69
2024/03/31 01:04:00;;;;;;;5.25;1.48;;;461.20;1203.20;;;;;;5017633;28;20060;-71
2024/03/31 01:06:26;;;;;;;5.20;1.33;;;461.30;1177.60;;;;;;5012667;28;20093;-68
2024/03/31 01:08:53;;;;;;;2.53;1.13;;;461.30;1203.20;;;;;;5021735;28;20037;-70
2024/03/31 01:11:20;;;;;;;6.70;1.55;;;461.30;1203.20;;;;;;5035406;28;20031;-70
2024/03/31 01:13:48;;;;;;;6.60;1.60;;;461.20;1203.20;;;;;;5027777;28;20478;-69
2024/03/31 01:16:14;;;;;;;4.07;1.20;;;461.10;1203.20;;;;;;5029383;28;20080;-70
2024/03/31 01:18:39;;;;;;;6.93;1.83;;;461.10;1203.20;;;;;;5032033;28;20054;-69
2024/03/31 01:21:06;;;;;;;7.65;2.00;;;461.10;1228.80;;;;;;5022338;28;20084;-70
2024/03/31 01:23:40;;;;;;;6.90;1.88;;;461.10;1228.80;;;;;;5030208;28;20033;-70
2024/03/31 01:26:05;;;;;;;4.72;1.95;;;461.10;1228.80;;;;;;5030081;28;20018;-69
2024/03/31 01:28:32;;;;;;;8.77;1.77;;;461.10;1228.80;;;;;;5031523;28;20025;-69
2024/03/31 01:30:58;;;;;;;3.38;1.50;;;461.00;1228.80;;;;;;5033968;28;20033;-70
2024/03/31 01:33:24;;;;;;;6.85;1.88;;;460.90;1254.40;;;;;;5031846;28;20025;-70
2024/03/31 01:35:50;;;;;;;5.95;1.45;;;460.80;1280.00;;;;;;5036730;28;20047;-70
2024/03/31 01:38:15;;;;;;;5.60;1.67;;;460.80;1280.00;;;;;;5053075;28;20379;-70
2024/03/31 01:40:41;;;;;;;6.13;1.60;;;460.80;1280.00;;;;;;5053890;28;20124;-70
2024/03/31 01:43:07;;;;;;;5.95;1.67;;;460.80;1280.00;;;;;;5053627;28;20031;-70
2024/03/31 01:45:33;;;;;;;6.82;1.48;;;436.10;1254.40;;;;;;5053611;28;20104;-69
2024/03/31 01:47:58;;;;;;;6.40;1.60;;;436.10;1254.40;;;;;;5049627;28;20474;-70
2024/03/31 01:50:24;;;;;;;6.28;1.55;;;436.00;1254.40;;;;;;5035382;28;20089;-70
2024/03/31 01:52:50;;;;;;;5.00;1.60;;;436.00;1254.40;;;;;;5035069;28;20099;-70
2024/03/31 01:55:16;;;;;;;5.45;1.30;;;436.10;1228.80;;;;;;5040770;28;20034;-71
2024/03/31 01:57:41;;;;;;;5.28;1.30;;;436.10;1228.80;;;;;;5029555;28;20463;-70
2024/03/31 02:00:08;;;;;;;5.35;1.30;;;436.10;1228.80;;;;;;5031453;28;20040;-71
2024/03/31 02:02:33;;;;;;;7.20;1.60;;;436.10;1203.20;;;;;;5050074;28;20021;-70
2024/03/31 02:04:59;;;;;;;10.57;1.60;;;436.10;1203.20;;;;;;5052879;28;20033;-70
2024/03/31 02:07:25;;;;;;;6.63;1.67;;;436.10;1203.20;;;;;;5033188;28;20045;-70
2024/03/31 02:09:50;;;;;;;6.57;1.80;;;436.10;1203.20;;;;;;5032512;28;20108;-70
2024/03/31 02:12:16;;;;;;;6.47;1.58;;;436.10;1203.20;;;;;;5033236;28;20052;-70
2024/03/31 02:14:42;;;;;;;6.40;1.65;;;436.10;1203.20;;;;;;5033081;28;20017;-69
2024/03/31 02:17:07;;;;;;;7.25;1.40;;;436.00;1203.20;;;;;;5033037;28;20036;-70
2024/03/31 02:19:33;;;;;;;3.75;1.40;;;436.00;1228.80;;;;;;5032770;28;20037;-70
2024/03/31 02:21:58;;;;;;;6.97;1.52;;;436.00;1203.20;;;;;;5033372;28;20026;-69
2024/03/31 02:24:24;;;;;;;4.85;1.45;;;436.00;1228.80;;;;;;5033085;28;20036;-70
2024/03/31 02:26:50;;;;;;;8.10;1.60;;;435.90;1228.80;;;;;;5032475;28;20033;-70
2024/03/31 02:29:15;;;;;;;6.60;1.73;;;435.90;1228.80;;;;;;5032910;28;20592;-70
2024/03/31 02:31:41;;;;;;;4.55;1.80;;;436.00;1228.80;;;;;;5033267;28;20491;-70
2024/03/31 02:34:08;;;;;;;8.20;1.90;;;436.00;1203.20;;;;;;5033115;28;20032;-69
2024/03/31 02:36:34;;;;;;;5.55;1.60;;;436.00;1203.20;;;;;;5037052;28;20021;-70
2024/03/31 02:38:59;;;;;;;5.68;1.90;;;436.00;1203.20;;;;;;5037562;28;20079;-70
2024/03/31 02:41:25;;;;;;;5.85;1.67;;;436.00;1203.20;;;;;;5038060;28;20385;-70
2024/03/31 02:43:51;;;;;;;4.80;1.60;;;435.90;1203.20;;;;;;5033849;28;20021;-70
2024/03/31 02:46:17;;;;;;;7.25;1.55;;;435.90;1203.20;;;;;;5044471;28;20033;-70
2024/03/31 02:48:43;;;;;;;6.57;1.73;;;435.90;1228.80;;;;;;5049362;28;20386;-70
2024/03/31 02:51:08;;;;;;;5.82;1.90;;;435.80;1254.40;;;;;;5052365;28;20048;-70
2024/03/31 02:53:34;;;;;;;10.80;1.40;;;435.60;1280.00;;;;;;5046554;28;20025;-70
2024/03/31 02:55:59;;;;;;;4.13;1.92;;;435.60;1280.00;;;;;;5034979;28;20490;-69
2024/03/31 02:58:25;;;;;;;12.15;1.90;;;435.70;1331.20;;;;;;5032579;28;20470;-70
2024/03/31 03:00:51;;;;;;;8.13;1.63;;;435.60;1331.20;;;;;;5030472;28;20466;-69
2024/03/31 03:03:16;;;;;;;6.45;1.35;;;435.60;1280.00;;;;;;5041635;28;20025;-70
2024/03/31 03:05:42;;;;;;;5.03;1.55;;;435.60;1280.00;;;;;;5034187;28;20061;-69
2024/03/31 03:08:08;;;;;;;6.45;1.67;;;435.50;1280.00;;;;;;5032039;28;20040;-70
2024/03/31 03:10:34;;;;;;;3.95;1.40;;;435.50;1331.20;;;;;;5031837;28;20044;-71
2024/03/31 03:12:59;;;;;;;9.30;1.95;;;435.30;1382.40;;;;;;5032391;28;20035;-70
2024/03/31 03:15:27;;;;;;;7.00;1.90;;;410.50;1382.40;;;;;;5032232;28;20060;-70
2024/03/31 03:17:55;;;;;;;10.48;1.90;;;410.20;1408.00;;;;;;5031859;28;20048;-69
2024/03/31 03:20:21;;;;;;;6.43;1.80;;;410.10;1408.00;;;;;;5031946;28;20497;-70
2024/03/31 03:22:47;;;;;;;5.90;1.50;;;410.10;1408.00;;;;;;5032190;28;20124;-70
2024/03/31 03:25:12;;;;;;;6.00;1.50;;;409.80;1382.40;;;;;;5032373;28;20356;-70
2024/03/31 03:27:38;;;;;;;9.85;1.38;;;410.20;1356.80;;;;;;5030716;28;20025;-70
2024/03/31 03:30:04;;;;;;;7.32;1.60;;;410.30;1331.20;;;;;;5020268;28;20026;-70
2024/03/31 03:32:30;;;;;;;7.80;1.52;;;410.40;1331.20;;;;;;5012355;28;20447;-70
2024/03/31 03:34:55;;;;;;;5.40;1.30;;;410.40;1305.60;;;;;;5011616;28;20053;-70
2024/03/31 03:37:21;;;;;;;3.78;1.20;;;410.50;1305.60;;;;;;5014838;28;20026;-70
2024/03/31 03:39:50;;;;;;;4.03;1.33;;;435.20;1280.00;;;;;;5012172;28;20487;-70
2024/03/31 03:42:16;;;;;;;5.90;1.67;;;435.20;1280.00;;;;;;5012087;28;20115;-70
2024/03/31 03:44:42;;;;;;;6.57;1.80;;;435.20;1280.00;;;;;;5012212;28;20112;-70
2024/03/31 03:47:08;;;;;;;7.85;1.45;;;435.30;1254.40;;;;;;5022959;28;20116;-70
2024/03/31 03:49:33;;;;;;;7.75;1.50;;;435.30;1254.40;;;;;;5031653;28;20018;-70
2024/03/31 03:51:59;;;;;;;7.40;1.67;;;435.40;1254.40;;;;;;5031431;28;20033;-70
2024/03/31 03:54:25;;;;;;;6.47;1.50;;;435.40;1254.40;;;;;;5028675;28;20061;-70
2024/03/31 03:56:50;;;;;;;4.88;1.77;;;435.30;1280.00;;;;;;5013985;28;20026;-70
2024/03/31 03:59:16;;;;;;;5.28;1.40;;;435.30;1280.00;;;;;;5031352;28;20037;-69
2024/03/31 04:01:42;;;;;;;7.93;1.45;;;435.40;1280.00;;;;;;5031483;28;20470;-70
2024/03/31 04:04:07;;;;;;;5.30;1.33;;;435.30;1331.20;;;;;;5031218;28;20471;-70
2024/03/31 04:06:33;;;;;;;7.70;1.48;;;410.50;1408.00;;;;;;5030820;28;20068;-70
2024/03/31 04:08:59;;;;;;;5.40;1.60;;;410.20;1459.20;;;;;;5031355;28;20414;-70
2024/03/31 04:11:25;;;;;;;7.50;1.80;;;410.30;1484.80;;;;;;5030601;28;20606;-70
2024/03/31 04:13:50;;;;;;;3.92;1.40;;;410.00;1510.40;;;;;;5027429;28;20061;-70
2024/03/31 04:16:16;;;;;;;5.40;1.33;;;409.70;1510.40;;;;;;5031386;28;20029;-70
2024/03/31 04:18:42;;;;;;;4.15;1.38;;;409.70;1510.40;;;;;;5031083;28;20461;-70
2024/03/31 04:21:08;;;;;;;7.05;1.92;;;409.60;1510.40;;;;;;5031131;28;20049;-70
2024/03/31 04:23:34;;;;;;;5.72;1.60;;;384.90;1510.40;;;;;;5031157;28;20505;-69
2024/03/31 04:26:00;;;;;;;5.43;1.90;;;384.80;1536.00;;;;;;5031267;28;20036;-70
2024/03/31 04:28:26;;;;;;;5.97;1.55;;;384.80;1536.00;;;;;;5031107;28;20029;-70
2024/03/31 04:30:51;;;;;;;6.68;1.70;;;384.80;1510.40;;;;;;5031312;28;20116;-70
2024/03/31 04:33:17;;;;;;;5.18;1.63;;;384.60;1484.80;;;;;;5030961;28;20026;-70
2024/03/31 04:35:43;;;;;;;6.72;1.80;;;384.70;1510.40;;;;;;5030278;28;20108;-70
2024/03/31 04:38:08;;;;;;;6.10;1.70;;;384.60;1510.40;;;;;;5030242;28;20045;-69
2024/03/31 04:40:34;;;;;;;9.07;1.63;;;384.80;1484.80;;;;;;5019611;28;20030;-69
2024/03/31 04:43:00;;;;;;;9.15;1.58;;;384.70;1510.40;;;;;;5011224;28;20495;-70
2024/03/31 04:45:29;;;;;;;7.80;1.90;;;409.60;1536.00;;;;;;5011211;28;20038;-71
2024/03/31 04:47:55;;;;;;;6.53;2.30;;;384.80;1510.40;;;;;;5010938;28;20029;-70
2024/03/31 04:50:21;;;;;;;8.10;1.63;;;384.80;1536.00;;;;;;5011260;28;20029;-70
2024/03/31 04:52:46;;;;;;;7.75;1.63;;;384.60;1536.00;;;;;;5011132;28;20030;-70
2024/03/31 04:55:12;;;;;;;9.25;2.22;;;384.30;1561.60;;;;;;5016816;28;20474;-70
2024/03/31 04:57:40;;;;;;;8.90;2.05;;;384.10;1587.20;;;;;;5022026;28;20132;-73
2024/03/31 05:00:07;;;;;;;8.20;2.63;;;384.00;1587.20;;;;;;5029640;28;20120;-71
2024/03/31 05:02:33;;;;;;;8.63;2.50;;;359.20;1587.20;;;;;;5030925;28;20018;-71
2024/03/31 05:04:59;;;;;;;12.13;3.00;;;384.00;1587.20;;;;;;5026548;28;20128;-71
2024/03/31 05:07:25;;;;;;;8.10;2.28;;;359.30;1587.20;;;;;;5031930;28;20320;-71
2024/03/31 05:09:50;;;;;;;9.27;2.20;;;359.30;1587.20;;;;;;5034456;28;20037;-71
2024/03/31 05:12:16;;;;;;;6.05;2.10;;;359.30;1561.60;;;;;;5034624;28;20032;-72
2024/03/31 05:14:42;;;;;;;7.10;1.63;;;359.30;1561.60;;;;;;5034236;28;20037;-70
2024/03/31 05:17:07;;;;;;;8.00;1.70;;;359.30;1561.60;;;;;;5033741;28;20033;-71
2024/03/31 05:19:33;;;;;;;7.18;2.00;;;359.30;1561.60;;;;;;5034150;28;20041;-71
2024/03/31 05:21:59;;;;;;;9.40;1.70;;;359.30;1561.60;;;;;;5034337;28;20389;-71
2024/03/31 05:24:24;;;;;;;6.38;1.52;;;359.30;1561.60;;;;;;5023666;28;20438;-71
2024/03/31 05:26:50;;;;;;;6.13;1.90;;;359.30;1587.20;;;;;;5014510;28;20034;-70
2024/03/31 05:29:18;;;;;;;7.75;1.70;;;359.30;1587.20;;;;;;5025966;28;20070;-70
2024/03/31 05:31:44;;;;;;;6.70;1.58;;;359.20;1587.20;;;;;;5034481;28;20047;-70
2024/03/31 05:34:09;;;;;;;7.60;1.85;;;359.20;1612.80;;;;;;5033563;28;20435;-70
2024/03/31 05:36:35;;;;;;;6.88;1.60;;;359.20;1612.80;;;;;;5032710;28;20104;-70
2024/03/31 05:39:01;;;;;;;10.93;1.60;;;359.20;1612.80;;;;;;5030109;28;20033;-70
2024/03/31 05:41:26;;;;;;;6.90;1.65;;;384.00;1612.80;;;;;;5034123;28;20033;-71
2024/03/31 05:43:52;;;;;;;5.57;1.52;;;384.10;1587.20;;;;;;5033869;28;20104;-70
2024/03/31 05:46:19;;;;;;;7.40;1.90;;;384.30;1561.60;;;;;;5033954;28;20144;-70
2024/03/31 05:48:44;;;;;;;6.85;1.60;;;384.60;1536.00;;;;;;5033943;28;20029;-70
2024/03/31 05:51:10;;;;;;;11.93;2.30;;;384.80;1510.40;;;;;;5033933;28;20124;-70
2024/03/31 05:53:36;;;;;;;8.93;1.60;;;409.60;1510.40;;;;;;5033845;28;20442;-70
2024/03/31 05:56:02;;;;;;;7.28;1.70;;;409.80;1484.80;;;;;;5033931;28;20021;-70
2024/03/31 05:58:27;;;;;;;8.10;1.63;;;409.90;1510.40;;;;;;5032741;28;20075;-69
2024/03/31 06:00:54;;;;;;;5.70;1.52;;;410.00;1510.40;;;;;;5033433;28;20060;-70
2024/03/31 06:03:19;;;;;;;4.47;1.17;;;410.20;1484.80;;;;;;5033766;28;20424;-70
2024/03/31 06:05:46;;;;;;;6.65;1.77;;;410.40;1459.20;;;;;;5033582;28;20018;-71
2024/03/31 06:08:11;;;;;;;6.63;1.73;;;435.20;1433.60;;;;;;5033306;28;20041;-71
2024/03/31 06:10:37;;;;;;;11.07;2.70;;;435.40;1408.00;;;;;;5015804;28;20377;-70
2024/03/31 06:13:04;;;;;;;17.08;6.65;;;435.60;1408.00;;;;;;5033432;28;20033;-70
2024/03/31 06:15:31;;;;;;;15.38;6.22;;;435.70;1408.00;;;;;;5033163;28;20018;-70
2024/03/31 06:17:57;;;;;;;12.65;4.28;;;435.80;1382.40;;;;;;5030577;28;20037;-71
2024/03/31 06:20:22;;;;;;;9.57;2.97;;;436.00;1356.80;;;;;;5029993;28;20478;-71
2024/03/31 06:22:48;;;;;;;3.53;1.45;;;;;;;;;;5032772;28;20029;-71
2024/03/31 06:25:15;;;;;;;7.78;1.50;;;461.10;1356.80;;;;;;5013414;28;20030;-70
2024/03/31 06:27:41;;;;;;;199.02;77.80;;;460.90;1356.80;;;;;;5013362;28;20033;-70
2024/03/31 06:30:07;;;;;;;11.15;8.00;;;460.80;1382.40;;;;;;5013408;28;20033;-70
2024/03/31 06:32:33;;;;;;;6.63;2.83;;;460.80;1382.40;;;;;;5013516;28;20033;-71
2024/03/31 06:34:59;;;;;;;6.72;2.10;;;460.80;1408.00;;;;;;5030391;28;20474;-70
2024/03/31 06:37:24;;;;;;;9.35;1.50;;;436.10;1408.00;;;;;;5030167;28;20383;-71
2024/03/31 06:39:50;;;;;;;7.65;1.50;;;436.10;1408.00;;;;;;5032547;28;20044;-70
2024/03/31 06:42:16;;;;;;;5.90;1.50;;;460.90;1433.60;;;;;;5033070;28;20025;-70
2024/03/31 06:44:42;;;;;;;7.03;2.03;;;461.00;1459.20;;;;;;5031049;28;20030;-71
2024/03/31 06:47:08;;;;;;;8.50;2.10;;;461.00;1459.20;;;;;;5032821;28;20025;-70
2024/03/31 06:49:34;;;;;;;5.68;1.40;;;461.30;1459.20;;;;;;5032928;28;20032;-71
2024/03/31 06:52:00;;;;;;;9.43;1.73;;;461.50;1433.60;;;;;;5032648;28;20029;-71
2024/03/31 06:54:26;;;;;;;9.30;1.60;;;486.60;1408.00;;;;;;5032459;28;20034;-70
2024/03/31 06:56:52;;;;;;;6.03;1.55;;;486.80;1792.00;;;;;;5032471;28;20037;-70
2024/03/31 06:59:17;;;;;;;5.72;1.30;;;486.80;1408.00;;;;;;5031769;28;20474;-70
2024/03/31 07:01:43;;;;;;;7.72;1.55;;;486.70;1433.60;;;;;;5032235;28;20104;-71
2024/03/31 07:04:09;;;;;;;6.05;1.85;;;487.00;1408.00;;;;;;5029520;28;20381;-70
2024/03/31 07:06:34;;;;;;;8.13;1.70;;;512.20;1356.80;;;;;;5032146;28;20184;-70
2024/03/31 07:09:01;;;;;;;6.90;1.90;;;512.90;1305.60;;;;;;5031492;28;20026;-70
2024/03/31 07:11:26;;;;;;;5.95;1.70;;;538.30;1254.40;;;;;;5032406;28;20032;-70
2024/03/31 07:13:52;;;;;;;6.50;1.60;;;563.60;1228.80;;;;;;5032341;28;20025;-70
2024/03/31 07:16:18;;;;;;;6.20;1.40;;;564.00;1177.60;;;;;;5025355;28;20493;-70
2024/03/31 07:18:43;;;;;;;8.32;1.40;;;563.70;1177.60;;;;;;5027012;28;20487;-69
2024/03/31 07:21:09;;;;;;;6.68;1.70;;;564.10;1152.00;;;;;;5029742;28;20629;-71
2024/03/31 07:23:35;;;;;;;5.05;1.52;;;588.90;1152.00;;;;;;5028095;28;20842;-69
2024/03/31 07:26:00;;;;;;;5.68;1.50;;;588.90;1152.00;;;;;;5029716;28;20536;-69
2024/03/31 07:28:27;;;;;;;11.68;1.60;;;563.80;1177.60;;;;;;5014876;28;20038;-69
2024/03/31 07:30:53;;;;;;;8.65;1.70;;;563.80;1203.20;;;;;;5020775;28;20033;-69
2024/03/31 07:33:19;;;;;;;8.98;2.22;;;564.00;1177.60;;;;;;5029014;28;20030;-68
2024/03/31 07:35:45;;;;;;;8.68;1.90;;;563.80;1177.60;;;;;;5025963;28;20109;-70
2024/03/31 07:38:11;;;;;;;6.53;1.80;;;563.80;1177.60;;;;;;5028438;28;20112;-70
2024/03/31 07:40:37;;;;;;;7.57;1.30;;;564.10;1177.60;;;;;;5029116;28;20148;-70
2024/03/31 07:43:03;;;;;;;7.32;1.85;;;564.00;1152.00;;;;;;5030181;28;20037;-71
2024/03/31 07:45:29;;;;;;;6.85;1.83;;;564.00;1152.00;;;;;;5029593;28;20018;-72
2024/03/31 07:47:55;;;;;;;6.95;1.55;;;564.00;1152.00;;;;;;5030159;28;20109;-68
2024/03/31 07:50:21;;;;;;;8.93;1.85;;;588.80;1126.40;;;;;;5029715;28;20116;-70
2024/03/31 07:52:47;;;;;;;10.50;1.80;;;564.10;1100.80;;;;;;5025950;28;20025;-70
2024/03/31 07:55:12;;;;;;;11.55;1.63;;;589.00;1126.40;;;;;;5010333;28;20041;-70
2024/03/31 07:57:38;;;;;;;10.35;1.88;;;589.10;1100.80;;;;;;5016821;28;20028;-69
2024/03/31 08:00:04;;;;;;;6.45;1.73;;;589.10;1100.80;;;;;;5028998;28;20037;-69
2024/03/31 08:02:30;;;;;;;16.50;1.90;;;589.30;1075.20;;;;;;5026718;28;20064;-69
2024/03/31 08:04:56;;;;;;;11.25;1.95;;;589.70;1100.80;;;;;;5029420;28;20056;-70
2024/03/31 08:07:21;;;;;;;6.65;1.50;;;614.40;1075.20;;;;;;5028539;28;20057;-70
2024/03/31 08:09:47;;;;;;;8.68;1.55;;;589.60;1075.20;;;;;;5025594;28;20035;-67
2024/03/31 08:12:14;;;;;;;7.00;1.40;;;589.60;1075.20;;;;;;5028955;28;20077;-67
2024/03/31 08:14:40;;;;;;;8.15;1.40;;;589.40;1100.80;;;;;;5025177;28;20065;-69
2024/03/31 08:17:05;;;;;;;10.55;1.80;;;589.40;1100.80;;;;;;5021204;28;20034;-68
2024/03/31 08:19:31;;;;;;;7.82;1.63;;;589.40;1100.80;;;;;;5019671;28;20037;-69
2024/03/31 08:21:57;;;;;;;11.32;2.08;;;589.50;1126.40;;;;;;5027611;28;20045;-69
2024/03/31 08:24:22;;;;;;;11.20;3.30;;;589.60;1100.80;;;;;;5026890;28;20021;-69
2024/03/31 08:26:48;;;;;;;8.98;1.70;;;614.40;1100.80;;;;;;5028937;28;20133;-69
2024/03/31 08:29:14;;;;;;;9.23;2.00;;;614.40;1024.00;;;;;;5021849;28;20526;-68
2024/03/31 08:31:40;;;;;;;5.28;1.77;;;614.80;1024.00;;;;;;5028622;28;20060;-68
2024/03/31 08:34:06;;;;;;;10.98;1.92;;;614.90;972.80;;;;;;5026430;28;20026;-70
2024/03/31 08:36:32;;;;;;;13.38;2.50;;;614.90;947.20;;;;;;5025931;28;20126;-70
2024/03/31 08:38:58;;;;;;;9.77;2.35;;;615.10;972.80;;;;;;5022260;28;20046;-69
2024/03/31 08:41:35;;;;;;;7.18;2.33;;;615.00;947.20;;;;;;5023922;28;20026;-69
2024/03/31 08:44:04;;;;;;;11.35;3.10;;;615.00;947.20;;;;;;5024670;28;20029;-68
2024/03/31 08:46:30;;;;;;;12.13;3.30;;;615.00;947.20;;;;;;5023852;28;20034;-69
2024/03/31 08:48:56;;;;;;;13.02;2.83;;;614.90;947.20;;;;;;5027454;28;20042;-70
2024/03/31 08:51:22;;;;;;;12.43;2.63;;;614.90;947.20;;;;;;5030300;28;20039;-67
2024/03/31 08:53:50;;;;;;;11.82;3.13;;;615.10;947.20;;;;;;5028509;28;20132;-68
2024/03/31 08:56:15;;;;;;;10.93;1.95;;;615.00;947.20;;;;;;5020084;28;20025;-68
2024/03/31 08:58:42;;;;;;;8.48;1.85;;;615.20;921.60;;;;;;5028744;28;20103;-69
2024/03/31 09:01:12;;;;;;;13.35;2.78;;;615.30;921.60;;;;;;5031054;28;20021;-68
2024/03/31 09:03:38;;;;;;;14.60;3.08;;;615.30;947.20;;;;;;5032396;28;20029;-70
2024/03/31 09:06:04;;;;;;;11.35;2.22;;;640.10;947.20;;;;;;5027337;28;20040;-68
2024/03/31 09:08:30;;;;;;;13.27;2.60;;;640.10;947.20;;;;;;5026996;28;20038;-69
2024/03/31 09:10:55;;;;;;;13.48;2.20;;;640.40;947.20;;;;;;5027188;28;20101;-70
2024/03/31 09:13:21;;;;;;;19.45;2.70;;;640.40;947.20;;;;;;5029640;28;20026;-71
2024/03/31 09:15:47;;;;;;;16.73;2.22;;;640.50;947.20;;;;;;5034429;28;20036;-70
2024/03/31 09:18:13;;;;;;;10.02;1.52;;;640.30;947.20;;;;;;5027955;28;20033;-71
2024/03/31 09:20:38;;;;;;;14.68;2.15;;;640.10;947.20;;;;;;5026785;28;20033;-70
2024/03/31 09:23:04;;;;;;;19.60;5.82;;;640.10;972.80;;;;;;5026383;28;20478;-71
2024/03/31 09:25:30;;;;;;;15.85;5.18;;;615.20;972.80;;;;;;5028505;28;20052;-71
2024/03/31 09:27:56;;;;;;;11.93;2.53;;;615.20;972.80;;;;;;5030701;28;20113;-71
2024/03/31 09:30:29;;;;;;;16.67;5.38;;;615.20;972.80;;;;;;5030712;28;20029;-71
2024/03/31 09:32:55;;;;;;;17.33;3.10;;;640.30;998.40;;;;;;5030575;28;20029;-71
2024/03/31 09:35:23;;;;;;;9.63;1.75;;;640.50;972.80;;;;;;5026140;28;20033;-71
2024/03/31 09:37:49;;;;;;;11.55;2.50;;;665.60;972.80;;;;;;5011752;28;20477;-71
2024/03/31 09:40:15;;;;;;;12.98;2.53;;;666.10;998.40;;;;;;5031225;28;20037;-71
2024/03/31 09:42:41;;;;;;;13.38;2.28;;;666.50;947.20;;;;;;5021171;28;20040;-71
2024/03/31 09:45:12;;;;;;;19.55;3.90;;;666.50;947.20;;;;;;5019051;28;20072;-70
2024/03/31 09:47:49;;;;;;;22.73;3.30;;;666.40;921.60;;;;;;5025875;28;20057;-70
2024/03/31 09:50:35;;;;;;;20.52;3.47;;;691.20;947.20;;;;;;5020252;28;20493;-70
2024/03/31 09:53:05;;;;;;;16.83;3.30;;;691.50;1100.80;;;;;;5026254;28;20022;-70
2024/03/31 09:55:40;;;;;;;20.70;4.20;;;691.20;947.20;;;;;;5015743;28;20425;-71
2024/03/31 09:58:11;;;;;;;41.08;18.48;;;666.40;947.20;;;;;;5024465;28;20064;-71
2024/03/31 10:00:43;;;;;;;20.05;3.33;;;691.40;947.20;;;;;;5019907;28;20204;-71
2024/03/31 10:03:27;;;;;;;18.35;3.05;;;691.30;947.20;;;;;;5020097;28;20026;-70
2024/03/31 10:05:54;;;;;;;17.88;3.00;;;691.30;947.20;;;;;;5021507;28;20053;-70
2024/03/31 10:08:22;;;;;;;19.08;3.70;;;666.40;921.60;;;;;;5028519;28;20053;-69
2024/03/31 10:10:49;;;;;;;21.10;3.35;;;666.50;947.20;;;;;;5028287;28;20021;-71
2024/03/31 10:13:16;;;;;;;28.70;4.43;;;666.30;921.60;;;;;;5022756;28;20482;-71
2024/03/31 10:15:42;;;;;;;35.17;4.00;;;666.30;921.60;;;;;;5018831;28;20100;-71
2024/03/31 10:18:09;;;;;;;33.22;10.88;;;666.50;921.60;;;;;;5028512;28;20021;-71
2024/03/31 10:20:35;;;;;;;37.22;9.00;;;666.50;921.60;;;;;;5033452;28;20042;-71
2024/03/31 10:23:02;;;;;;;23.70;4.22;;;691.20;921.60;;;;;;5023560;28;20037;-71
2024/03/31 10:25:28;;;;;;;26.75;5.25;;;691.50;921.60;;;;;;5013887;28;20118;-71
2024/03/31 10:27:56;;;;;;;24.30;3.97;;;691.60;921.60;;;;;;5021055;28;20086;-70
2024/03/31 10:30:24;;;;;;;27.15;3.88;;;691.70;896.00;;;;;;5023889;28;20057;-70
2024/03/31 10:32:50;;;;;;;49.95;17.55;;;691.50;896.00;;;;;;5033161;28;20024;-70
2024/03/31 10:35:16;;;;;;;30.27;4.20;;;691.30;896.00;;;;;;5028138;28;20029;-68
2024/03/31 10:37:43;;;;;;;29.08;9.02;;;691.50;896.00;;;;;;5027283;28;20022;-69
2024/03/31 10:40:12;;;;;;;31.10;3.90;;;691.40;896.00;;;;;;5028942;28;20108;-70
2024/03/31 10:42:39;;;;;;;36.25;6.25;;;691.40;896.00;;;;;;5029637;28;20033;-69
2024/03/31 10:45:06;;;;;;;24.83;4.53;;;691.20;896.00;;;;;;5024441;28;20104;-69
2024/03/31 10:47:32;;;;;;;34.30;4.90;;;691.20;896.00;;;;;;5023625;28;20106;-69
2024/03/31 10:49:58;;;;;;;30.92;4.95;;;691.20;896.00;;;;;;5022348;28;20025;-69
2024/03/31 10:52:31;;;;;;;16.65;3.10;;;691.30;896.00;;;;;;5024308;28;20068;-70
2024/03/31 10:54:59;;;;;;;35.25;4.75;;;691.20;896.00;;;;;;5015562;28;20021;-69
2024/03/31 10:57:37;;;;;;;39.47;5.20;;;691.30;896.00;;;;;;5019232;28;20059;-70
2024/03/31 11:00:05;;;;;;;32.83;4.72;;;691.30;921.60;;;;;;5030523;28;20072;-71
2024/03/31 11:02:33;;;;;;;33.65;4.22;;;691.30;921.60;;;;;;5018734;28;20109;-71
2024/03/31 11:05:11;;;;;;;31.50;4.53;;;691.20;896.00;;;;;;5016635;28;20030;-70
2024/03/31 11:07:47;;;;;;;29.38;3.85;;;691.50;896.00;;;;;;5024252;28;20045;-71
2024/03/31 11:10:14;;;;;;;34.75;5.20;;;691.60;896.00;;;;;;5027881;28;20084;-71
2024/03/31 11:12:44;;;;;;;29.40;4.28;;;691.80;896.00;;;;;;5023178;28;20482;-71
2024/03/31 11:15:12;;;;;;;31.40;4.95;;;691.70;896.00;;;;;;5024890;28;20558;-71
2024/03/31 11:17:39;;;;;;;29.40;4.03;;;691.80;896.00;;;;;;5029847;28;20017;-71
2024/03/31 11:20:05;;;;;;;33.67;5.10;;;692.10;870.40;;;;;;5032468;28;20073;-71
2024/03/31 11:22:32;;;;;;;24.05;3.63;;;716.80;896.00;;;;;;5032161;28;20104;-71
2024/03/31 11:24:58;;;;;;;32.60;4.68;;;692.10;870.40;;;;;;5031981;28;20108;-71
2024/03/31 11:27:25;;;;;;;39.47;4.20;;;717.00;870.40;;;;;;5032209;28;20022;-71
2024/03/31 11:29:51;;;;;;;35.05;5.40;;;717.30;870.40;;;;;;5032113;28;20545;-71
2024/03/31 11:32:18;;;;;;;28.05;4.47;;;717.30;870.40;;;;;;5025349;28;20042;-69
2024/03/31 11:34:47;;;;;;;28.83;4.57;;;717.10;870.40;;;;;;5020555;28;20386;-69
2024/03/31 11:37:14;;;;;;;30.90;4.97;;;717.20;870.40;;;;;;5021419;28;20112;-71
2024/03/31 11:39:40;;;;;;;35.90;4.97;;;717.10;896.00;;;;;;5020067;28;20041;-71
2024/03/31 11:42:06;;;;;;;25.30;4.30;;;717.00;870.40;;;;;;5026555;28;20647;-71
2024/03/31 11:44:34;;;;;;;28.35;4.47;;;717.00;870.40;;;;;;5029145;28;20469;-70
2024/03/31 11:47:03;;;;;;;31.35;5.10;;;717.00;896.00;;;;;;5022734;28;20026;-72
2024/03/31 11:49:31;;;;;;;33.30;4.72;;;692.10;870.40;;;;;;5021205;28;20036;-72
2024/03/31 11:51:57;;;;;;;33.78;4.90;;;692.10;870.40;;;;;;5017011;28;20022;-71
2024/03/31 11:54:27;;;;;;;27.42;3.38;;;692.10;844.80;;;;;;5023558;28;20386;-71
2024/03/31 11:56:53;;;;;;;23.67;3.40;;;692.10;870.40;;;;;;5017031;28;20564;-72
2024/03/31 11:59:22;;;;;;;28.75;4.25;;;692.00;870.40;;;;;;5016917;28;20422;-72
2024/03/31 12:02:06;;;;;;;24.63;4.18;;;716.80;896.00;;;;;;5030119;28;20089;-72
2024/03/31 12:04:32;;;;;;;26.75;4.05;;;717.00;896.00;;;;;;5030356;28;20087;-72
2024/03/31 12:06:58;;;;;;;20.67;3.60;;;716.80;896.00;;;;;;5025211;28;20049;-72
2024/03/31 12:09:25;;;;;;;21.83;4.32;;;692.00;870.40;;;;;;5024970;28;20022;-71
2024/03/31 12:11:51;;;;;;;30.50;4.32;;;716.80;896.00;;;;;;5023534;28;20136;-71